Reklama

Seznam meteostanic a jejich METAR

Vyhledat místa podle abecedy:
A B C D E F G H I J K L M N O P Q R S T U V W X Y Z

Filtrovat:

ID stanice:
a/nebo
Název místa (fulltext):
 
Místo (ID)Naposledy načteno 
Gaborone (FBSK) 15.12.2019 20:00 UTC Zobrazit METAR
FBSK 152000Z 20009KT CAVOK 27/08 Q1015 NOSIG
Gaza (LVGZ) Zatím nenačteno  
Geneva (LSGG) 15.12.2019 19:50 UTC Zobrazit METAR
LSGG 151950Z VRB01KT CAVOK 07/06 Q1011 NOSIG
George Town (MWCR) 15.12.2019 20:00 UTC Zobrazit METAR
MWCR 152000Z 08014KT 9999 -SHRA SCT018 29/25 Q1014
Georgetown (SYCJ) 15.12.2019 17:00 UTC Zobrazit METAR
SYCJ 151700Z 09010KT 060V120 9999 BKN019 SCT039 BKN100 30/25 Q1012 NOSIG
Gibraltar (LXGB) 15.12.2019 19:50 UTC Zobrazit METAR
LXGB 151950Z AUTO 14004KT 9999 // FEW240/// 15/11 Q1013
Glasgow (EGPF) 15.12.2019 18:50 UTC Zobrazit METAR
EGPF 151850Z AUTO 21004KT 160V230 9999 FEW043 02/00 Q0988
Gomel (UMGG) 30.08.2014 17:00 UTC Zobrazit METAR
UMGG 301700Z CAVOK 19/10 Q1017 R28/CLRD// NOSIG
Goteborg (ESGG) 15.12.2019 19:50 UTC Zobrazit METAR
ESGG 151950Z 29010KT 9000 -SN BKN005 00/M00 Q0987 R21/29//95
Grand Turk Island (MBGT) 15.12.2019 19:00 UTC Zobrazit METAR
MBGT 151900Z 08011KT 9999 SCT025 29/23 Q1018
Graz (LOWG) 15.12.2019 15:50 UTC Zobrazit METAR
LOWG 151550Z VRB02KT 6000 MIFG FEW050 BKN300 M00/M02 Q1012 R17/19//95 BECMG 4000 FZBCFG
Grodno (UMMG) Zatím nenačteno  
Guatemala City (MGGT) 15.12.2019 20:00 UTC Zobrazit METAR
MGGT 152000Z 05006KT 9999 BKN024 24/14 Q1023 A3021
Reklama

Počasí na Váš email

Emaily jsou bez reklamy a bez spamu



Odhlásit newsletter

Reklama


Lunární kalendář

  • 19.12.
  • 26.12.
  • 03.01.
  • 10.01.



Reklama


Reklama
Povinné ručení
Reklama



Reklama